createdAt,value
2018-07-07T00:02:20.789Z,12.60
2018-07-07T00:04:48.417Z,11.53
2018-07-07T00:07:16.885Z,12.80
2018-07-07T00:09:44.493Z,12.23
2018-07-07T00:12:12.089Z,12.63
2018-07-07T00:14:39.709Z,12.27
2018-07-07T00:17:07.527Z,12.30
2018-07-07T00:19:35.129Z,12.13
2018-07-07T00:22:03.365Z,12.40
2018-07-07T00:24:30.985Z,15.40
2018-07-07T00:26:58.594Z,11.70
2018-07-07T00:29:26.198Z,12.43
2018-07-07T00:31:53.785Z,13.43
2018-07-07T00:34:22.470Z,11.70
2018-07-07T00:36:50.188Z,13.07
2018-07-07T00:39:17.725Z,12.73
2018-07-07T00:41:45.324Z,11.47
2018-07-07T00:44:12.967Z,11.07
2018-07-07T00:46:40.586Z,12.53
2018-07-07T00:49:08.277Z,11.80
2018-07-07T00:51:35.903Z,12.67
2018-07-07T00:54:03.533Z,11.67
2018-07-07T00:56:31.054Z,11.30
2018-07-07T00:58:58.805Z,13.20
2018-07-07T01:01:28.083Z,12.40
2018-07-07T01:03:55.757Z,11.10
2018-07-07T01:06:26.081Z,12.63
2018-07-07T01:08:54.380Z,13.87
2018-07-07T01:11:21.989Z,12.10
2018-07-07T01:13:49.580Z,11.07
2018-07-07T01:16:17.249Z,12.63
2018-07-07T01:18:44.931Z,12.87
2018-07-07T01:21:12.633Z,12.70
2018-07-07T01:23:41.214Z,13.03
2018-07-07T01:26:09.653Z,13.70
2018-07-07T01:28:37.308Z,13.60
2018-07-07T01:31:05.380Z,13.80
2018-07-07T01:33:32.972Z,13.50
2018-07-07T01:36:00.606Z,14.10
2018-07-07T01:38:29.130Z,14.00
2018-07-07T01:40:57.460Z,15.57
2018-07-07T01:43:25.034Z,13.47
2018-07-07T01:45:52.738Z,13.43
2018-07-07T01:48:20.405Z,12.80
2018-07-07T01:50:49.045Z,14.10
2018-07-07T01:53:16.645Z,15.60
2018-07-07T01:55:44.256Z,15.07
2018-07-07T01:58:11.889Z,13.13
2018-07-07T02:00:39.717Z,13.03
2018-07-07T02:03:07.304Z,13.90
2018-07-07T02:05:34.917Z,13.80
2018-07-07T02:08:02.590Z,14.77
2018-07-07T02:10:30.121Z,13.47
2018-07-07T02:12:57.705Z,13.83
2018-07-07T02:15:25.345Z,13.97
2018-07-07T02:17:52.947Z,14.60
2018-07-07T02:20:20.589Z,14.30
2018-07-07T02:22:48.199Z,13.77
2018-07-07T02:25:15.817Z,14.50
2018-07-07T02:27:43.424Z,14.60
2018-07-07T02:30:11.029Z,14.47
2018-07-07T02:32:38.629Z,15.20
2018-07-07T02:35:06.273Z,14.60
2018-07-07T02:37:34.481Z,15.73
2018-07-07T02:40:02.121Z,13.67
2018-07-07T02:42:29.681Z,13.20
2018-07-07T02:44:57.322Z,13.00
2018-07-07T02:47:24.809Z,12.07
2018-07-07T02:49:52.449Z,11.97
2018-07-07T02:52:20.081Z,12.20
2018-07-07T02:54:47.737Z,13.40
2018-07-07T02:57:16.325Z,12.27
2018-07-07T02:59:44.699Z,11.80
2018-07-07T03:02:12.334Z,10.97
2018-07-07T03:04:39.972Z,12.83
2018-07-07T03:07:07.638Z,12.10
2018-07-07T03:09:35.238Z,11.77
2018-07-07T03:12:02.861Z,11.60
2018-07-07T03:14:30.657Z,11.70
2018-07-07T03:16:58.253Z,11.80
2018-07-07T03:19:25.931Z,12.90
2018-07-07T03:21:53.521Z,12.23
2018-07-07T03:24:21.237Z,12.00
2018-07-07T03:26:48.851Z,11.83
2018-07-07T03:29:16.494Z,11.80
2018-07-07T03:31:44.098Z,11.53
2018-07-07T03:34:11.721Z,11.97
2018-07-07T03:36:39.305Z,11.77
2018-07-07T03:39:07.602Z,12.03
2018-07-07T03:41:35.205Z,12.40
2018-07-07T03:44:02.940Z,10.27
2018-07-07T03:46:30.512Z,12.97
2018-07-07T03:48:58.157Z,11.17
2018-07-07T03:51:25.768Z,11.13
2018-07-07T03:53:53.357Z,11.80
2018-07-07T03:56:21.330Z,11.33
2018-07-07T03:58:49.737Z,12.17
2018-07-07T04:01:17.365Z,12.50
2018-07-07T04:03:45.140Z,12.83
2018-07-07T04:06:12.795Z,12.40
2018-07-07T04:08:41.401Z,12.10
2018-07-07T04:11:09.032Z,13.63
2018-07-07T04:13:36.653Z,12.20
2018-07-07T04:16:04.895Z,13.30
2018-07-07T04:18:33.554Z,12.90
2018-07-07T04:21:02.146Z,13.37
2018-07-07T04:23:30.197Z,13.60
2018-07-07T04:25:58.833Z,12.43
2018-07-07T04:28:26.709Z,12.50
2018-07-07T04:30:54.309Z,12.80
2018-07-07T04:33:21.905Z,13.07
2018-07-07T04:35:49.882Z,14.17
2018-07-07T04:38:18.024Z,12.63
2018-07-07T04:40:46.217Z,13.93
2018-07-07T04:43:14.489Z,12.60
2018-07-07T04:45:42.113Z,13.07
2018-07-07T04:48:10.105Z,13.40
2018-07-07T04:50:37.757Z,14.30
2018-07-07T04:53:05.764Z,14.23
2018-07-07T04:55:33.387Z,13.00
2018-07-07T04:58:01.469Z,13.70
2018-07-07T05:00:30.470Z,14.17
2018-07-07T05:02:58.880Z,13.00
2018-07-07T05:05:26.517Z,14.30
2018-07-07T05:07:54.151Z,13.20
2018-07-07T05:10:22.165Z,13.93
2018-07-07T05:12:50.006Z,12.90
2018-07-07T05:15:17.654Z,13.67
2018-07-07T05:17:45.260Z,13.50
2018-07-07T05:20:12.845Z,14.50
2018-07-07T05:22:40.431Z,14.20
2018-07-07T05:25:08.112Z,13.93
2018-07-07T05:27:35.725Z,14.33
2018-07-07T05:30:03.433Z,14.33
2018-07-07T05:32:31.073Z,14.00
2018-07-07T05:34:58.717Z,12.97
2018-07-07T05:37:26.318Z,14.73
2018-07-07T05:39:53.963Z,12.70
2018-07-07T05:42:21.565Z,12.87
2018-07-07T05:44:49.177Z,13.23
2018-07-07T05:47:16.778Z,13.77
2018-07-07T05:49:44.384Z,13.23
2018-07-07T05:52:11.965Z,11.80
2018-07-07T05:54:39.575Z,12.03
2018-07-07T05:57:07.187Z,11.27
2018-07-07T05:59:34.806Z,11.77
2018-07-07T06:02:02.409Z,12.10
2018-07-07T06:04:31.061Z,11.60
2018-07-07T06:06:58.666Z,11.33
2018-07-07T06:09:26.348Z,11.67
2018-07-07T06:11:54.004Z,10.20
2018-07-07T06:14:22.318Z,11.17
2018-07-07T06:16:49.927Z,10.97
2018-07-07T06:19:17.565Z,11.20
2018-07-07T06:21:45.165Z,11.60
2018-07-07T06:24:13.172Z,10.50
2018-07-07T06:26:40.710Z,11.13
2018-07-07T06:29:08.324Z,10.23
2018-07-07T06:31:35.948Z,11.30
2018-07-07T06:34:03.481Z,10.43
2018-07-07T06:36:34.062Z,10.40
2018-07-07T06:39:01.681Z,10.00
2018-07-07T06:41:29.296Z,9.77
2018-07-07T06:43:57.098Z,10.70
2018-07-07T06:46:24.775Z,11.33
2018-07-07T06:48:52.376Z,10.73
2018-07-07T06:51:20.021Z,9.23
2018-07-07T06:53:47.756Z,9.47
2018-07-07T06:56:15.361Z,10.40
2018-07-07T06:58:42.950Z,10.27
2018-07-07T07:01:10.585Z,9.97
2018-07-07T07:03:38.183Z,10.50
2018-07-07T07:06:06.444Z,9.97
2018-07-07T07:08:34.056Z,9.80
2018-07-07T07:11:01.950Z,10.27
2018-07-07T07:13:29.549Z,9.67
2018-07-07T07:15:57.737Z,10.37
2018-07-07T07:18:25.330Z,9.60
2018-07-07T07:20:52.958Z,10.20
2018-07-07T07:23:20.565Z,10.73
2018-07-07T07:25:48.075Z,10.87
2018-07-07T07:28:15.685Z,10.07
2018-07-07T07:30:43.272Z,9.97
2018-07-07T07:33:10.865Z,9.30
2018-07-07T07:35:38.485Z,7.90
2018-07-07T07:38:06.578Z,9.23
2018-07-07T07:40:34.164Z,8.07
2018-07-07T07:43:01.805Z,8.03
2018-07-07T07:45:29.440Z,8.10
2018-07-07T07:47:57.044Z,6.67
2018-07-07T07:50:24.654Z,6.70
2018-07-07T07:52:52.903Z,7.47
2018-07-07T07:55:21.246Z,7.50
2018-07-07T07:57:48.844Z,7.03
2018-07-07T08:00:16.517Z,7.87
2018-07-07T08:02:44.013Z,6.80
2018-07-07T08:05:11.616Z,6.10
2018-07-07T08:07:39.245Z,7.67
2018-07-07T08:10:06.884Z,6.93
2018-07-07T08:12:34.486Z,6.67
2018-07-07T08:15:02.090Z,6.50
2018-07-07T08:17:29.685Z,7.03
2018-07-07T08:19:57.278Z,6.40
2018-07-07T08:22:24.895Z,7.10
2018-07-07T08:24:52.481Z,8.17
2018-07-07T08:27:20.131Z,6.87
2018-07-07T08:29:47.719Z,7.13
2018-07-07T08:32:15.382Z,6.67
2018-07-07T08:34:44.040Z,6.30
2018-07-07T08:37:14.489Z,6.33
2018-07-07T08:39:42.181Z,7.00
2018-07-07T08:42:09.875Z,7.80
2018-07-07T08:44:37.457Z,6.70
2018-07-07T08:47:05.872Z,7.40
2018-07-07T08:49:33.494Z,6.30
2018-07-07T08:52:01.161Z,6.33
2018-07-07T08:54:29.768Z,6.40
2018-07-07T08:56:58.000Z,6.43
2018-07-07T08:59:25.584Z,5.33
2018-07-07T09:01:53.198Z,6.37
2018-07-07T09:04:20.806Z,6.40
2018-07-07T09:06:49.400Z,5.40
2018-07-07T09:09:17.018Z,4.70
2018-07-07T09:11:44.809Z,4.97
2018-07-07T09:14:12.386Z,4.50
2018-07-07T09:16:40.138Z,4.80
2018-07-07T09:19:07.708Z,4.90
2018-07-07T09:21:35.341Z,4.87
2018-07-07T09:24:02.968Z,5.07
2018-07-07T09:26:30.541Z,5.27
2018-07-07T09:28:58.140Z,4.60
2018-07-07T09:31:25.741Z,5.00
2018-07-07T09:33:53.329Z,5.37
2018-07-07T09:36:20.937Z,4.67
2018-07-07T09:38:48.581Z,5.10
2018-07-07T09:41:16.136Z,4.93
2018-07-07T09:43:43.753Z,4.33
2018-07-07T09:46:11.366Z,4.60
2018-07-07T09:48:38.949Z,4.73
2018-07-07T09:51:06.589Z,4.50
2018-07-07T09:53:34.193Z,4.33
2018-07-07T09:56:01.778Z,4.87
2018-07-07T09:58:29.353Z,4.10
2018-07-07T10:00:56.932Z,4.03
2018-07-07T10:03:24.517Z,5.10
2018-07-07T10:05:52.141Z,4.40
2018-07-07T10:08:19.701Z,3.87
2018-07-07T10:10:47.339Z,4.27
2018-07-07T10:13:14.902Z,4.00
2018-07-07T10:15:42.509Z,3.43
2018-07-07T10:18:10.101Z,3.70
2018-07-07T10:20:38.814Z,3.90
2018-07-07T10:23:06.428Z,4.30
2018-07-07T10:25:34.641Z,4.37
2018-07-07T10:28:02.229Z,3.97
2018-07-07T10:30:29.812Z,3.63
2018-07-07T10:32:57.554Z,3.47
2018-07-07T10:35:25.766Z,4.00
2018-07-07T10:37:53.371Z,3.90
2018-07-07T10:40:20.981Z,3.87
2018-07-07T10:42:48.637Z,3.30
2018-07-07T10:45:16.301Z,3.47
2018-07-07T10:47:43.921Z,4.23
2018-07-07T10:50:11.624Z,3.23
2018-07-07T10:52:39.193Z,3.60
2018-07-07T10:55:06.725Z,3.20
2018-07-07T10:57:34.313Z,3.10
2018-07-07T11:00:02.041Z,3.60
2018-07-07T11:02:29.666Z,3.37
2018-07-07T11:04:57.148Z,3.50
2018-07-07T11:07:24.745Z,2.87
2018-07-07T11:09:52.372Z,3.10
2018-07-07T11:12:19.934Z,2.97
2018-07-07T11:14:47.526Z,3.00
2018-07-07T11:17:15.147Z,3.63
2018-07-07T11:19:42.733Z,2.47
2018-07-07T11:22:10.319Z,3.30
2018-07-07T11:24:37.945Z,3.20
2018-07-07T11:27:05.509Z,3.13
2018-07-07T11:29:33.102Z,3.13
2018-07-07T11:32:00.685Z,2.53
2018-07-07T11:34:28.992Z,3.63
2018-07-07T11:36:56.608Z,3.33
2018-07-07T11:39:24.196Z,3.47
2018-07-07T11:41:51.997Z,2.90
2018-07-07T11:44:19.572Z,3.53
2018-07-07T11:46:47.177Z,3.23
2018-07-07T11:49:15.582Z,3.00
2018-07-07T11:51:47.780Z,2.97
2018-07-07T11:54:15.941Z,2.40
2018-07-07T11:56:43.500Z,2.90
2018-07-07T11:59:11.087Z,3.20
2018-07-07T12:01:38.697Z,3.27
2018-07-07T12:04:06.381Z,3.63
2018-07-07T12:06:34.041Z,3.17
2018-07-07T12:09:01.625Z,3.50
2018-07-07T12:11:29.277Z,3.53
2018-07-07T12:13:56.853Z,3.20
2018-07-07T12:16:24.350Z,3.43
2018-07-07T12:18:51.954Z,3.10
2018-07-07T12:21:19.592Z,3.50
2018-07-07T12:23:47.208Z,3.40
2018-07-07T12:26:14.857Z,3.23
2018-07-07T12:28:42.469Z,3.73
2018-07-07T12:31:10.249Z,3.60
2018-07-07T12:33:38.375Z,3.77
2018-07-07T12:36:06.001Z,3.20
2018-07-07T12:38:33.660Z,3.40
2018-07-07T12:41:01.278Z,3.20
2018-07-07T12:43:28.976Z,3.73
2018-07-07T12:45:56.603Z,3.53
2018-07-07T12:48:24.746Z,3.87
2018-07-07T12:50:52.330Z,4.00
2018-07-07T12:53:19.972Z,4.00
2018-07-07T12:55:48.317Z,3.57
2018-07-07T12:58:15.933Z,3.70
2018-07-07T13:00:43.621Z,3.60
2018-07-07T13:03:11.597Z,3.63
2018-07-07T13:05:40.200Z,3.07
2018-07-07T13:08:07.809Z,3.20
2018-07-07T13:10:35.805Z,3.70
2018-07-07T13:13:03.412Z,3.17
2018-07-07T13:15:31.061Z,3.13
2018-07-07T13:17:58.595Z,3.33
2018-07-07T13:20:26.209Z,3.30
2018-07-07T13:22:53.818Z,2.60
2018-07-07T13:25:22.137Z,2.90
2018-07-07T13:27:49.717Z,2.83
2018-07-07T13:30:17.300Z,2.50
2018-07-07T13:32:44.857Z,3.00
2018-07-07T13:35:12.533Z,2.50
2018-07-07T13:37:40.105Z,2.83
2018-07-07T13:40:07.701Z,2.53
2018-07-07T13:42:35.277Z,2.27
2018-07-07T13:45:02.956Z,2.73
2018-07-07T13:47:30.557Z,2.27
2018-07-07T13:49:58.161Z,2.77
2018-07-07T13:52:25.739Z,2.57
2018-07-07T13:54:53.344Z,2.40
2018-07-07T13:57:20.909Z,2.50
2018-07-07T13:59:48.530Z,3.07
2018-07-07T14:02:16.460Z,3.17
2018-07-07T14:04:44.006Z,3.17
2018-07-07T14:07:11.645Z,3.30
2018-07-07T14:09:39.373Z,2.70
2018-07-07T14:12:07.894Z,2.57
2018-07-07T14:14:35.617Z,2.70
2018-07-07T14:17:03.611Z,2.70
2018-07-07T14:19:31.162Z,3.30
2018-07-07T14:21:58.810Z,3.10
2018-07-07T14:24:26.408Z,3.40
2018-07-07T14:26:54.028Z,3.80
2018-07-07T14:29:21.629Z,3.23
2018-07-07T14:31:49.908Z,3.07
2018-07-07T14:34:17.465Z,3.07
2018-07-07T14:36:45.897Z,2.90
2018-07-07T14:39:13.481Z,2.70
2018-07-07T14:41:41.085Z,2.73
2018-07-07T14:44:08.757Z,2.97
2018-07-07T14:46:37.406Z,2.87
2018-07-07T14:49:05.111Z,2.90
2018-07-07T14:51:32.668Z,2.57
2018-07-07T14:54:00.299Z,2.67
2018-07-07T14:56:28.377Z,2.87
2018-07-07T14:58:56.140Z,3.77
2018-07-07T15:01:24.768Z,3.50
2018-07-07T15:03:52.973Z,3.17
2018-07-07T15:06:20.553Z,3.70
2018-07-07T15:08:48.137Z,3.17
2018-07-07T15:11:15.642Z,3.57
2018-07-07T15:13:43.782Z,3.50
2018-07-07T15:16:11.375Z,3.73
2018-07-07T15:18:38.994Z,2.67
2018-07-07T15:21:06.666Z,3.00
2018-07-07T15:23:34.254Z,3.17
2018-07-07T15:26:01.940Z,3.00
2018-07-07T15:28:29.518Z,3.40
2018-07-07T15:30:57.129Z,3.27
2018-07-07T15:33:25.054Z,3.20
2018-07-07T15:35:52.658Z,3.57
2018-07-07T15:38:20.270Z,3.77
2018-07-07T15:40:47.893Z,3.77
2018-07-07T15:43:15.489Z,3.83
2018-07-07T15:45:43.081Z,3.20
2018-07-07T15:48:10.696Z,4.03
2018-07-07T15:50:38.365Z,4.00
2018-07-07T15:53:06.006Z,3.77
2018-07-07T15:55:33.592Z,3.40
2018-07-07T15:58:01.191Z,3.80
2018-07-07T16:00:28.808Z,4.17
2018-07-07T16:02:56.767Z,4.10
2018-07-07T16:05:24.668Z,3.60
2018-07-07T16:07:53.106Z,4.13
2018-07-07T16:10:20.990Z,4.03
2018-07-07T16:12:48.557Z,4.77
2018-07-07T16:15:16.214Z,3.77
2018-07-07T16:17:43.801Z,3.90
2018-07-07T16:20:11.425Z,3.90
2018-07-07T16:22:39.117Z,3.50
2018-07-07T16:25:06.653Z,3.90
2018-07-07T16:27:34.246Z,3.57
2018-07-07T16:30:01.874Z,3.50
2018-07-07T16:32:29.458Z,3.70
2018-07-07T16:34:57.070Z,3.67
2018-07-07T16:37:24.645Z,4.23
2018-07-07T16:39:52.321Z,3.90
2018-07-07T16:42:21.089Z,3.80
2018-07-07T16:44:48.704Z,3.33
2018-07-07T16:47:16.379Z,4.43
2018-07-07T16:49:44.077Z,4.07
2018-07-07T16:52:11.760Z,3.60
2018-07-07T16:54:41.513Z,3.90
2018-07-07T16:57:11.858Z,3.60
2018-07-07T16:59:39.506Z,3.93
2018-07-07T17:02:07.427Z,3.87
2018-07-07T17:04:35.137Z,4.60
2018-07-07T17:07:03.527Z,3.90
2018-07-07T17:09:32.106Z,3.93
2018-07-07T17:12:00.769Z,4.17
2018-07-07T17:14:28.481Z,3.63
2018-07-07T17:16:56.158Z,4.90
2018-07-07T17:19:24.234Z,4.53
2018-07-07T17:21:52.340Z,4.23
2018-07-07T17:24:20.030Z,4.60
2018-07-07T17:26:48.704Z,4.20
2018-07-07T17:29:16.376Z,4.73
2018-07-07T17:31:44.645Z,4.30
2018-07-07T17:34:12.391Z,4.20
2018-07-07T17:36:40.113Z,4.13
2018-07-07T17:39:07.746Z,4.70
2018-07-07T17:41:36.085Z,5.43
2018-07-07T17:44:03.737Z,5.03
2018-07-07T17:46:31.486Z,4.50
2018-07-07T17:48:59.138Z,5.00
2018-07-07T17:51:27.526Z,5.50
2018-07-07T17:53:56.563Z,4.90
2018-07-07T17:56:24.438Z,4.50
2018-07-07T17:58:52.014Z,4.67
2018-07-07T18:01:20.568Z,5.00
2018-07-07T18:03:48.902Z,5.00
2018-07-07T18:06:16.641Z,5.20
2018-07-07T18:08:44.637Z,5.20
2018-07-07T18:11:12.225Z,5.10
2018-07-07T18:13:39.793Z,4.87
2018-07-07T18:16:07.380Z,4.67
2018-07-07T18:18:35.179Z,5.43
2018-07-07T18:21:02.837Z,4.73
2018-07-07T18:23:30.437Z,4.90
2018-07-07T18:25:58.049Z,5.80
2018-07-07T18:28:25.653Z,4.90
2018-07-07T18:30:53.317Z,5.57
2018-07-07T18:33:20.951Z,5.90
2018-07-07T18:35:48.591Z,5.67
2018-07-07T18:38:16.249Z,4.73
2018-07-07T18:40:43.889Z,5.90
2018-07-07T18:43:15.450Z,5.70
2018-07-07T18:45:42.972Z,6.23
2018-07-07T18:48:10.655Z,5.40
2018-07-07T18:50:38.287Z,5.80
2018-07-07T18:53:05.937Z,6.30
2018-07-07T18:55:33.549Z,6.20
2018-07-07T18:58:01.157Z,7.67
2018-07-07T19:00:28.927Z,5.73
2018-07-07T19:02:56.524Z,6.60
2018-07-07T19:05:24.134Z,6.23
2018-07-07T19:07:51.722Z,7.50
2018-07-07T19:10:19.329Z,6.80
2018-07-07T19:12:46.926Z,6.13
2018-07-07T19:15:20.275Z,6.13
2018-07-07T19:17:48.469Z,6.07
2018-07-07T19:20:21.606Z,6.30
2018-07-07T19:22:54.697Z,6.27
2018-07-07T19:25:28.029Z,6.40
2018-07-07T19:27:55.677Z,6.60
2018-07-07T19:30:23.293Z,7.20
2018-07-07T19:32:56.825Z,6.70
2018-07-07T19:35:30.303Z,6.47
2018-07-07T19:37:58.745Z,6.57
2018-07-07T19:40:27.213Z,6.87
2018-07-07T19:42:56.572Z,5.87
2018-07-07T19:45:24.661Z,6.73
2018-07-07T19:47:52.465Z,5.87
2018-07-07T19:50:22.221Z,6.20
2018-07-07T19:52:50.317Z,6.50
2018-07-07T19:55:19.042Z,6.93
2018-07-07T19:57:46.553Z,7.30
2018-07-07T20:00:14.653Z,7.50
2018-07-07T20:02:42.316Z,7.67
2018-07-07T20:05:10.957Z,6.87
2018-07-07T20:07:38.600Z,7.30
2018-07-07T20:10:06.253Z,7.63
2018-07-07T20:12:33.872Z,8.20
2018-07-07T20:15:02.574Z,7.47
2018-07-07T20:17:41.678Z,7.67
2018-07-07T20:20:45.734Z,7.40
2018-07-07T20:23:14.768Z,7.07
2018-07-07T20:25:46.988Z,7.67
2018-07-07T20:28:20.285Z,6.97
2018-07-07T20:30:48.910Z,7.70
2018-07-07T20:33:16.553Z,7.03
2018-07-07T20:35:44.149Z,7.30
2018-07-07T20:38:11.777Z,7.40
2018-07-07T20:40:39.413Z,7.07
2018-07-07T20:43:07.021Z,7.60
2018-07-07T20:45:34.644Z,7.80
2018-07-07T20:48:02.288Z,8.60
2018-07-07T20:50:29.913Z,8.63
2018-07-07T20:52:57.568Z,8.37
2018-07-07T20:55:25.202Z,8.07
2018-07-07T20:57:52.823Z,8.03
2018-07-07T21:00:20.422Z,8.07
2018-07-07T21:02:48.072Z,7.40
2018-07-07T21:05:15.584Z,7.43
2018-07-07T21:07:43.168Z,7.37
2018-07-07T21:10:10.777Z,7.73
2018-07-07T21:12:38.380Z,7.83
2018-07-07T21:15:06.076Z,7.87
2018-07-07T21:17:33.685Z,8.20
2018-07-07T21:20:01.288Z,8.53
2018-07-07T21:22:28.937Z,7.47
2018-07-07T21:24:56.609Z,8.80
2018-07-07T21:27:24.193Z,8.40
2018-07-07T21:29:51.795Z,8.10
2018-07-07T21:32:19.433Z,7.67
2018-07-07T21:34:47.081Z,7.60
2018-07-07T21:37:14.713Z,8.63
2018-07-07T21:39:42.356Z,8.70
2018-07-07T21:42:10.048Z,8.60
2018-07-07T21:44:37.698Z,7.63
2018-07-07T21:47:05.395Z,7.70
2018-07-07T21:49:33.061Z,7.90
2018-07-07T21:52:00.713Z,8.70
2018-07-07T21:54:28.473Z,7.80
2018-07-07T21:56:56.805Z,8.40
2018-07-07T21:59:24.675Z,8.67
2018-07-07T22:01:58.641Z,8.03
2018-07-07T22:04:32.718Z,8.90
2018-07-07T22:07:08.004Z,8.43
2018-07-07T22:09:36.426Z,7.90
2018-07-07T22:12:04.180Z,9.60
2018-07-07T22:14:32.034Z,8.57
2018-07-07T22:16:59.660Z,9.60
2018-07-07T22:19:27.709Z,9.27
2018-07-07T22:21:58.205Z,10.10
2018-07-07T22:24:25.859Z,9.00
2018-07-07T22:26:59.166Z,10.60
2018-07-07T22:29:27.013Z,10.80
2018-07-07T22:31:55.920Z,10.40
2018-07-07T22:34:23.987Z,10.10
2018-07-07T22:36:51.945Z,9.53
2018-07-07T22:39:19.572Z,9.73
2018-07-07T22:41:59.931Z,10.07
2018-07-07T22:44:27.937Z,10.00
2018-07-07T22:46:55.648Z,9.33
2018-07-07T22:49:24.089Z,9.70
2018-07-07T22:51:52.086Z,9.50
2018-07-07T22:54:19.778Z,9.60
2018-07-07T22:56:47.378Z,9.37
2018-07-07T22:59:15.087Z,9.50
2018-07-07T23:01:42.973Z,8.77
2018-07-07T23:04:10.603Z,9.20
2018-07-07T23:06:39.921Z,8.90
2018-07-07T23:09:09.067Z,10.70
2018-07-07T23:11:36.793Z,9.70
2018-07-07T23:14:04.521Z,10.20
2018-07-07T23:16:32.485Z,9.77
2018-07-07T23:19:00.846Z,9.30
2018-07-07T23:21:28.533Z,8.50
2018-07-07T23:23:56.172Z,9.20
2018-07-07T23:26:25.011Z,10.47
2018-07-07T23:28:52.629Z,9.67
2018-07-07T23:31:20.326Z,10.10
2018-07-07T23:33:47.993Z,9.70
2018-07-07T23:36:15.665Z,9.43
2018-07-07T23:38:43.913Z,9.33
2018-07-07T23:41:11.889Z,10.83
2018-07-07T23:43:39.729Z,9.13
2018-07-07T23:46:07.609Z,9.27
2018-07-07T23:48:35.185Z,10.10
2018-07-07T23:51:03.899Z,10.47
2018-07-07T23:53:31.536Z,10.07
2018-07-07T23:55:59.191Z,10.07
2018-07-07T23:58:26.835Z,10.17
